createdAt,value
2018-02-06T00:00:30.932Z,15.17
2018-02-06T00:02:58.450Z,13.40
2018-02-06T00:05:25.959Z,13.83
2018-02-06T00:07:54.256Z,14.07
2018-02-06T00:10:22.531Z,13.97
2018-02-06T00:12:50.059Z,14.37
2018-02-06T00:15:17.567Z,14.00
2018-02-06T00:17:45.087Z,13.17
2018-02-06T00:20:12.595Z,14.57
2018-02-06T00:22:49.891Z,12.57
2018-02-06T00:25:17.454Z,13.43
2018-02-06T00:27:45.718Z,14.07
2018-02-06T00:30:13.240Z,12.67
2018-02-06T00:32:41.518Z,13.30
2018-02-06T00:35:09.810Z,12.20
2018-02-06T00:37:38.093Z,11.53
2018-02-06T00:40:06.390Z,12.63
2018-02-06T00:42:33.899Z,12.30
2018-02-06T00:45:01.423Z,11.93
2018-02-06T00:47:28.924Z,12.50
2018-02-06T00:49:56.447Z,13.00
2018-02-06T00:52:23.955Z,11.50
2018-02-06T00:54:52.243Z,13.10
2018-02-06T00:57:20.515Z,12.60
2018-02-06T00:59:48.804Z,11.90
2018-02-06T01:02:16.324Z,12.43
2018-02-06T01:04:43.850Z,13.90
2018-02-06T01:07:11.355Z,11.93
2018-02-06T01:09:38.872Z,11.70
2018-02-06T01:12:06.424Z,12.03
2018-02-06T01:14:33.923Z,12.40
2018-02-06T01:17:01.433Z,13.50
2018-02-06T01:19:28.943Z,12.00
2018-02-06T01:21:56.467Z,12.70
2018-02-06T01:24:23.971Z,12.53
2018-02-06T01:26:51.495Z,12.90
2018-02-06T01:29:19.008Z,13.60
2018-02-06T01:31:47.299Z,12.53
2018-02-06T01:34:14.821Z,12.70
2018-02-06T01:36:42.343Z,13.33
2018-02-06T01:39:09.855Z,14.20
2018-02-06T01:41:38.147Z,11.90
2018-02-06T01:44:06.419Z,13.37
2018-02-06T01:46:34.713Z,12.03
2018-02-06T01:49:02.228Z,12.23
2018-02-06T01:51:29.755Z,12.30
2018-02-06T01:53:57.256Z,11.73
2018-02-06T01:56:24.775Z,11.60
2018-02-06T01:58:52.283Z,13.40
2018-02-06T02:01:20.610Z,12.03
2018-02-06T02:03:48.115Z,12.10
2018-02-06T02:06:15.633Z,12.57
2018-02-06T02:08:43.155Z,12.97
2018-02-06T02:11:11.427Z,12.80
2018-02-06T02:13:39.711Z,11.27
2018-02-06T02:16:07.987Z,13.10
2018-02-06T02:18:36.289Z,11.90
2018-02-06T02:21:03.799Z,10.93
2018-02-06T02:23:31.322Z,12.00
2018-02-06T02:25:58.831Z,11.80
2018-02-06T02:28:27.120Z,13.03
2018-02-06T02:30:55.391Z,12.17
2018-02-06T02:33:23.675Z,12.80
2018-02-06T02:35:51.991Z,12.93
2018-02-06T02:38:19.507Z,11.13
2018-02-06T02:40:47.778Z,11.53
2018-02-06T04:38:58.962Z,9.40
2018-02-06T04:41:26.499Z,8.43
2018-02-06T04:43:53.999Z,8.17
2018-02-06T04:46:22.268Z,8.50
2018-02-06T04:48:49.790Z,8.20
2018-02-06T04:51:17.286Z,9.20
2018-02-06T04:53:44.807Z,8.67
2018-02-06T04:56:12.306Z,8.20
2018-02-06T04:58:39.822Z,8.50
2018-02-06T05:01:08.207Z,8.47
2018-02-06T05:03:35.723Z,8.10
2018-02-06T05:06:03.995Z,7.70
2018-02-06T05:08:32.278Z,8.97
2018-02-06T05:11:00.556Z,8.17
2018-02-06T05:13:28.843Z,8.40
2018-02-06T05:15:57.114Z,9.43
2018-02-06T05:18:25.399Z,8.07
2018-02-06T05:20:52.899Z,8.37
2018-02-06T05:23:20.416Z,8.20
2018-02-06T05:25:48.678Z,8.97
2018-02-06T05:28:16.968Z,8.43
2018-02-06T05:30:45.283Z,8.00
2018-02-06T05:33:12.826Z,7.70
2018-02-06T05:35:40.322Z,8.17
2018-02-06T05:38:07.859Z,8.80
2018-02-06T05:40:35.362Z,8.10
2018-02-06T05:43:02.864Z,8.53
2018-02-06T05:45:30.379Z,7.90
2018-02-06T05:47:57.888Z,8.70
2018-02-06T05:50:25.402Z,9.07
2018-02-06T05:52:52.953Z,8.33
2018-02-06T05:55:20.471Z,8.67
2018-02-06T05:57:47.971Z,8.60
2018-02-06T06:00:15.495Z,9.30
2018-02-06T06:02:42.994Z,8.53
2018-02-06T06:05:10.506Z,8.70
2018-02-06T06:07:38.006Z,8.17
2018-02-06T06:10:05.526Z,9.53
2018-02-06T06:12:33.031Z,8.70
2018-02-06T06:15:00.551Z,8.27
2018-02-06T06:17:28.051Z,7.90
2018-02-06T06:19:55.595Z,9.77
2018-02-06T06:22:23.095Z,9.27
2018-02-06T06:24:51.400Z,9.57
2018-02-06T06:27:18.928Z,8.00
2018-02-06T06:29:47.237Z,8.20
2018-02-06T06:32:14.752Z,8.83
2018-02-06T06:34:42.267Z,8.67
2018-02-06T06:37:09.784Z,8.90
2018-02-06T06:39:38.056Z,9.27
2018-02-06T06:42:06.344Z,8.80
2018-02-06T06:44:34.615Z,9.33
2018-02-06T06:47:02.899Z,9.00
2018-02-06T06:49:31.172Z,7.80
2018-02-06T06:51:59.458Z,10.17
2018-02-06T06:54:26.988Z,9.63
2018-02-06T06:56:54.515Z,7.80
2018-02-06T06:59:22.031Z,9.20
2018-02-06T07:01:50.314Z,8.67
2018-02-06T07:04:18.688Z,8.87
2018-02-06T07:06:46.994Z,9.40
2018-02-06T07:09:14.500Z,8.13
2018-02-06T07:11:42.004Z,9.30
2018-02-06T07:14:09.522Z,9.20
2018-02-06T07:16:37.028Z,9.13
2018-02-06T07:19:04.543Z,8.23
2018-02-06T07:21:32.051Z,8.67
2018-02-06T07:23:59.558Z,8.90
2018-02-06T07:26:27.059Z,8.07
2018-02-06T07:28:54.580Z,8.37
2018-02-06T07:31:22.084Z,8.03
2018-02-06T07:33:49.603Z,7.30
2018-02-06T07:36:17.108Z,8.43
2018-02-06T07:38:44.623Z,8.00
2018-02-06T07:41:12.114Z,8.07
2018-02-06T07:43:39.635Z,7.83
2018-02-06T07:46:07.142Z,7.73
2018-02-06T07:48:34.648Z,7.77
2018-02-06T07:51:02.165Z,9.07
2018-02-06T07:53:29.668Z,8.00
2018-02-06T07:55:57.182Z,8.30
2018-02-06T07:58:24.687Z,8.93
2018-02-06T08:00:52.203Z,8.13
2018-02-06T08:03:19.704Z,8.53
2018-02-06T08:05:47.217Z,8.40
2018-02-06T08:08:14.719Z,8.50
2018-02-06T08:10:42.246Z,8.37
2018-02-06T08:13:09.751Z,8.50
2018-02-06T08:15:37.267Z,8.23
2018-02-06T08:18:04.763Z,7.40
2018-02-06T08:20:32.277Z,8.90
2018-02-06T08:22:59.774Z,8.83
2018-02-06T08:25:27.293Z,8.00
2018-02-06T08:27:54.800Z,8.17
2018-02-06T08:30:22.359Z,8.63
2018-02-06T08:32:49.860Z,8.53
2018-02-06T08:35:17.383Z,8.27
2018-02-06T08:37:44.894Z,8.80
2018-02-06T08:40:12.435Z,8.93
2018-02-06T08:42:39.948Z,9.33
2018-02-06T08:45:07.454Z,9.53
2018-02-06T08:47:34.971Z,8.00
2018-02-06T08:50:02.467Z,8.30
2018-02-06T08:52:30.747Z,7.60
2018-02-06T08:54:59.019Z,8.60
2018-02-06T08:57:27.304Z,9.30
2018-02-06T08:59:54.819Z,8.17
2018-02-06T09:02:22.434Z,7.70
2018-02-06T09:04:49.942Z,8.80
2018-02-06T09:07:17.468Z,8.17
2018-02-06T09:09:44.963Z,8.60
2018-02-06T09:12:12.609Z,8.40
2018-02-06T09:14:40.935Z,8.50
2018-02-06T09:17:09.223Z,8.53
2018-02-06T09:19:36.726Z,9.87
2018-02-06T09:22:04.258Z,7.77
2018-02-06T09:24:31.800Z,8.60
2018-02-06T09:27:00.101Z,8.30
2018-02-06T09:29:27.614Z,7.40
2018-02-06T09:31:55.107Z,7.27
2018-02-06T09:34:22.633Z,8.30
2018-02-06T09:36:50.151Z,7.53
2018-02-06T09:39:17.667Z,6.80
2018-02-06T09:41:45.938Z,8.53
2018-02-06T09:44:14.231Z,7.10
2018-02-06T09:46:42.504Z,8.40
2018-02-06T09:49:10.784Z,7.60
2018-02-06T09:51:39.064Z,7.37
2018-02-06T09:54:07.378Z,7.07
2018-02-06T09:56:34.899Z,7.73
2018-02-06T09:59:03.189Z,6.43
2018-02-06T10:01:30.724Z,7.00
2018-02-06T10:03:59.008Z,7.27
2018-02-06T10:06:27.279Z,7.07
2018-02-06T10:08:55.558Z,7.93
2018-02-06T10:11:23.858Z,5.93
2018-02-06T10:13:51.468Z,6.40
2018-02-06T10:16:18.974Z,7.10
2018-02-06T10:18:46.494Z,7.10
2018-02-06T10:21:14.024Z,7.20
2018-02-06T10:23:41.523Z,6.60
2018-02-06T10:26:09.018Z,6.50
2018-02-06T10:28:36.545Z,5.80
2018-02-06T10:31:04.088Z,6.20
2018-02-06T10:33:31.583Z,5.93
2018-02-06T10:35:59.871Z,6.40
2018-02-06T10:38:27.367Z,6.33
2018-02-06T10:40:54.874Z,7.27
2018-02-06T10:43:23.130Z,5.47
2018-02-06T10:45:50.642Z,6.40
2018-02-06T10:48:18.133Z,5.67
2018-02-06T10:50:45.642Z,5.80
2018-02-06T10:53:13.134Z,6.40
2018-02-06T10:55:40.646Z,6.67
2018-02-06T10:58:08.911Z,5.50
2018-02-06T11:00:36.422Z,4.90
2018-02-06T11:03:03.914Z,5.27
2018-02-06T11:05:31.474Z,5.90
2018-02-06T11:07:58.980Z,5.30
2018-02-06T11:10:26.486Z,5.40
2018-02-06T11:12:53.998Z,5.27
2018-02-06T11:15:21.501Z,5.50
2018-02-06T11:17:49.014Z,5.27
2018-02-06T11:20:17.278Z,6.00
2018-02-06T11:22:45.555Z,4.67
2018-02-06T11:25:13.819Z,4.50
2018-02-06T11:27:42.107Z,4.23
2018-02-06T11:30:10.371Z,5.07
2018-02-06T11:32:37.887Z,4.40
2018-02-06T11:35:05.387Z,4.70
2018-02-06T11:37:32.967Z,5.47
2018-02-06T11:40:00.439Z,5.23
2018-02-06T11:42:27.950Z,5.00
2018-02-06T11:44:55.446Z,5.47
2018-02-06T11:47:23.723Z,5.53
2018-02-06T11:49:51.995Z,5.20
2018-02-06T11:52:20.279Z,5.73
2018-02-06T11:54:48.553Z,5.10
2018-02-06T11:57:16.850Z,5.53
2018-02-06T11:59:44.343Z,5.73
2018-02-06T12:02:11.951Z,6.00
2018-02-06T12:04:40.226Z,5.77
2018-02-06T12:07:08.486Z,4.80
2018-02-06T12:09:35.998Z,5.40
2018-02-06T12:12:03.502Z,5.50
2018-02-06T12:14:31.017Z,5.67
2018-02-06T12:16:58.510Z,5.60
2018-02-06T12:19:26.027Z,5.77
2018-02-06T12:21:53.518Z,5.83
2018-02-06T12:24:21.026Z,4.50
2018-02-06T12:26:49.435Z,4.93
2018-02-06T12:29:16.950Z,5.60
2018-02-06T12:31:44.443Z,5.73
2018-02-06T12:34:11.958Z,5.70
2018-02-06T12:36:39.451Z,5.03
2018-02-06T12:39:06.990Z,4.93
2018-02-06T12:41:34.478Z,5.63
2018-02-06T12:44:01.966Z,5.20
2018-02-06T12:46:29.474Z,4.83
2018-02-06T12:48:57.734Z,5.97
2018-02-06T12:51:25.247Z,4.30
2018-02-06T12:53:52.741Z,4.80
2018-02-06T12:56:20.250Z,4.80
2018-02-06T12:58:47.751Z,5.40
2018-02-06T13:01:15.269Z,5.20
2018-02-06T13:03:42.762Z,4.43
2018-02-06T13:06:10.274Z,5.90
2018-02-06T13:08:39.350Z,5.50
2018-02-06T13:11:06.867Z,5.30
2018-02-06T13:13:34.357Z,4.90
2018-02-06T13:16:01.886Z,4.77
2018-02-06T13:18:29.378Z,4.57
2018-02-06T13:20:56.874Z,4.83
2018-02-06T13:23:25.146Z,5.60
2018-02-06T13:25:53.414Z,4.83
2018-02-06T13:28:21.690Z,5.10
2018-02-06T13:30:49.962Z,4.97
2018-02-06T13:33:17.470Z,4.90
2018-02-06T13:35:44.966Z,4.90
2018-02-06T13:38:12.498Z,4.80
2018-02-06T13:40:39.994Z,6.00
2018-02-06T13:43:07.502Z,5.00
2018-02-06T13:45:35.007Z,4.50
2018-02-06T13:48:02.522Z,4.87
2018-02-06T13:50:30.022Z,5.70
2018-02-06T13:52:57.538Z,5.07
2018-02-06T13:55:25.051Z,5.90
2018-02-06T13:57:53.335Z,4.87
2018-02-06T14:00:21.605Z,5.30
2018-02-06T14:02:49.127Z,5.47
2018-02-06T14:05:16.627Z,6.10
2018-02-06T14:07:44.188Z,5.70
2018-02-06T14:10:11.688Z,5.90
2018-02-06T14:12:39.196Z,5.90
2018-02-06T14:15:06.711Z,6.90
2018-02-06T14:17:34.215Z,6.67
2018-02-06T14:20:01.740Z,6.30
2018-02-06T14:22:29.243Z,6.77
2018-02-06T14:24:56.762Z,7.20
2018-02-06T14:27:24.273Z,7.00
2018-02-06T14:29:52.554Z,7.33
2018-02-06T14:32:20.823Z,6.70
2018-02-06T14:34:49.111Z,7.23
2018-02-06T14:37:17.386Z,6.83
2018-02-06T14:39:45.671Z,7.83
2018-02-06T14:42:13.973Z,7.90
2018-02-06T14:44:41.488Z,9.27
2018-02-06T14:47:08.995Z,9.27
2018-02-06T14:49:36.532Z,8.33
2018-02-06T14:52:04.804Z,9.10
2018-02-06T14:54:33.066Z,8.00
2018-02-06T14:57:00.588Z,9.00
2018-02-06T14:59:28.857Z,8.97
2018-02-06T15:01:56.377Z,8.47
2018-02-06T15:04:24.648Z,9.50
2018-02-06T15:06:52.932Z,9.20
2018-02-06T15:09:21.206Z,10.20
2018-02-06T15:11:49.495Z,10.30
2018-02-06T15:14:17.762Z,10.60
2018-02-06T15:16:46.047Z,10.43
2018-02-06T15:19:14.318Z,10.83
2018-02-06T15:21:42.608Z,10.47
2018-02-06T15:24:10.106Z,9.90
2018-02-06T15:26:37.627Z,9.63
2018-02-06T15:29:05.139Z,9.70
2018-02-06T15:31:32.664Z,9.80
2018-02-06T15:34:00.167Z,9.90
2018-02-06T15:36:27.722Z,9.80
2018-02-06T15:38:55.231Z,9.53
2018-02-06T15:41:22.747Z,10.80
2018-02-06T15:43:50.263Z,9.37
2018-02-06T15:46:17.766Z,11.23
2018-02-06T15:48:45.292Z,11.60
2018-02-06T15:51:12.799Z,10.90
2018-02-06T15:53:40.319Z,9.20
2018-02-06T15:56:07.839Z,10.13
2018-02-06T15:58:35.364Z,9.80
2018-02-06T16:01:17.743Z,9.43
2018-02-06T16:03:45.267Z,10.23
2018-02-06T16:06:13.534Z,9.70
2018-02-06T16:08:41.869Z,8.93
2018-02-06T16:11:09.346Z,11.37
2018-02-06T16:13:36.863Z,9.27
2018-02-06T16:16:04.370Z,9.10
2018-02-06T16:18:31.891Z,9.53
2018-02-06T16:20:59.399Z,10.07
2018-02-06T16:23:27.687Z,10.03
2018-02-06T16:25:55.963Z,8.90
2018-02-06T16:28:24.250Z,9.97
2018-02-06T16:30:51.805Z,9.70
2018-02-06T16:33:19.292Z,10.40
2018-02-06T16:35:46.808Z,9.87
2018-02-06T16:38:14.311Z,9.40
2018-02-06T16:40:41.836Z,10.43
2018-02-06T16:43:10.111Z,9.40
2018-02-06T16:45:38.400Z,9.53
2018-02-06T16:48:06.670Z,9.10
2018-02-06T16:50:34.955Z,10.17
2018-02-06T16:53:03.235Z,9.57
2018-02-06T16:55:31.527Z,10.10
2018-02-06T16:57:59.135Z,8.40
2018-02-06T17:00:26.667Z,9.27
2018-02-06T17:02:54.167Z,9.87
2018-02-06T17:05:21.704Z,9.57
2018-02-06T17:07:49.211Z,9.47
2018-02-06T17:10:17.486Z,8.93
2018-02-06T17:12:45.759Z,9.03
2018-02-06T17:15:14.042Z,9.60
2018-02-06T17:17:42.315Z,8.70
2018-02-06T17:20:09.857Z,8.80
2018-02-06T17:22:37.362Z,9.30
2018-02-06T17:25:04.887Z,9.60
2018-02-06T17:27:33.163Z,9.43
2018-02-06T17:30:01.478Z,9.30
2018-02-06T17:32:28.979Z,9.30
2018-02-06T17:34:56.487Z,9.70
2018-02-06T17:37:24.007Z,9.87
2018-02-06T17:39:51.515Z,9.20
2018-02-06T17:42:19.039Z,9.00
2018-02-06T17:44:46.538Z,9.63
2018-02-06T17:47:14.055Z,9.07
2018-02-06T17:49:41.557Z,9.30
2018-02-06T17:52:09.070Z,9.80
2018-02-06T17:54:36.567Z,8.80
2018-02-06T17:57:04.087Z,9.70
2018-02-06T17:59:31.591Z,9.20
2018-02-06T18:01:59.121Z,10.17
2018-02-06T18:04:27.394Z,11.30
2018-02-06T18:06:55.687Z,9.60
2018-02-06T18:09:23.960Z,10.40
2018-02-06T18:11:52.271Z,10.00
2018-02-06T18:14:19.772Z,9.93
2018-02-06T18:16:47.274Z,8.90
2018-02-06T18:19:14.799Z,11.00
2018-02-06T18:21:42.307Z,10.10
2018-02-06T18:24:09.848Z,10.70
2018-02-06T18:26:37.372Z,10.00
2018-02-06T18:29:04.894Z,9.93
2018-02-06T18:31:32.447Z,10.50
2018-02-06T18:33:59.963Z,11.27
2018-02-06T18:36:28.243Z,10.00
2018-02-06T18:38:56.535Z,11.97
2018-02-06T18:41:24.804Z,14.00
2018-02-06T18:43:53.098Z,12.30
2018-02-06T18:46:20.611Z,15.23
2018-02-06T18:48:48.132Z,12.43
2018-02-06T18:51:15.639Z,12.07
2018-02-06T18:53:43.167Z,12.47
2018-02-06T18:56:10.678Z,11.90
2018-02-06T18:58:38.958Z,14.10
2018-02-06T19:01:07.252Z,13.57
2018-02-06T19:03:34.768Z,12.07
2018-02-06T19:06:02.303Z,11.53
2018-02-06T19:08:29.807Z,12.63
2018-02-06T19:10:58.099Z,15.10
2018-02-06T19:13:26.376Z,12.47
2018-02-06T19:15:54.665Z,13.20
2018-02-06T19:18:22.183Z,14.80
2018-02-06T19:20:49.707Z,13.00
2018-02-06T19:23:17.211Z,12.80
2018-02-06T19:25:44.733Z,12.30
2018-02-06T19:28:12.239Z,12.10
2018-02-06T19:30:40.527Z,13.57
2018-02-06T19:33:08.799Z,12.17
2018-02-06T19:35:37.087Z,12.20
2018-02-06T19:38:05.359Z,10.70
2018-02-06T19:40:33.647Z,11.83
2018-02-06T19:43:01.151Z,11.63
2018-02-06T19:45:28.702Z,11.30
2018-02-06T19:47:56.212Z,11.63
2018-02-06T19:50:24.485Z,11.10
2018-02-06T19:52:52.771Z,12.07
2018-02-06T19:55:21.043Z,12.37
2018-02-06T19:57:49.331Z,13.23
2018-02-06T20:00:17.599Z,12.60
2018-02-06T20:02:45.887Z,11.10
2018-02-06T20:05:14.164Z,11.20
2018-02-06T20:07:41.691Z,12.80
2018-02-06T20:10:09.205Z,10.90
2018-02-06T20:12:36.735Z,11.43
2018-02-06T20:15:05.007Z,11.80
2018-02-06T20:17:33.295Z,13.47
2018-02-06T20:20:01.571Z,11.43
2018-02-06T20:22:29.859Z,11.30
2018-02-06T20:24:57.372Z,11.27
2018-02-06T20:27:24.960Z,10.53
2018-02-06T20:29:52.442Z,10.83
2018-02-06T20:32:19.957Z,10.27
2018-02-06T20:34:47.484Z,11.27
2018-02-06T20:37:14.999Z,10.57
2018-02-06T20:39:43.286Z,10.80
2018-02-06T20:42:11.640Z,10.97
2018-02-06T20:44:39.168Z,11.33
2018-02-06T20:47:06.683Z,11.80
2018-02-06T20:49:34.971Z,10.60
2018-02-06T20:52:02.491Z,10.70
2018-02-06T20:54:30.020Z,10.87
2018-02-06T20:56:57.541Z,10.27
2018-02-06T20:59:25.831Z,11.20
2018-02-06T21:01:53.339Z,12.50
2018-02-06T21:04:20.864Z,11.80
2018-02-06T21:06:48.371Z,12.73
2018-02-06T21:09:15.919Z,11.73
2018-02-06T21:11:43.422Z,12.67
2018-02-06T21:14:11.690Z,11.53
2018-02-06T21:16:39.983Z,12.33
2018-02-06T21:19:07.494Z,11.23
2018-02-06T21:21:35.027Z,11.67
2018-02-06T21:24:02.527Z,12.43
2018-02-06T21:26:30.052Z,12.87
2018-02-06T21:28:57.567Z,12.60
2018-02-06T21:31:25.908Z,11.73
2018-02-06T21:33:53.387Z,11.43
2018-02-06T21:36:20.906Z,11.60
2018-02-06T21:38:48.410Z,12.30
2018-02-06T21:41:15.931Z,13.30
2018-02-06T21:43:43.439Z,11.83
2018-02-06T21:46:11.727Z,13.20
2018-02-06T21:48:39.994Z,12.90
2018-02-06T21:51:08.279Z,13.63
2018-02-06T21:53:36.551Z,12.27
2018-02-06T21:56:04.835Z,13.20
2018-02-06T21:58:32.351Z,12.80
2018-02-06T22:00:59.857Z,14.17
2018-02-06T22:03:27.384Z,12.97
2018-02-06T22:05:54.892Z,13.13
2018-02-06T22:08:22.419Z,14.20
2018-02-06T22:10:50.699Z,14.23
2018-02-06T22:13:18.986Z,15.00
2018-02-06T22:15:47.261Z,17.30
2018-02-06T22:18:15.556Z,17.47
2018-02-06T22:20:43.071Z,17.23
2018-02-06T22:23:10.599Z,17.67
2018-02-06T22:25:38.106Z,19.57
2018-02-06T22:28:06.395Z,19.03
2018-02-06T22:30:34.698Z,18.83
2018-02-06T22:33:02.223Z,19.90
2018-02-06T22:35:30.503Z,19.20
2018-02-06T22:37:58.815Z,20.20
2018-02-06T22:40:26.323Z,20.30
2018-02-06T22:42:53.827Z,20.60
2018-02-06T22:45:21.347Z,20.03
2018-02-06T22:47:48.856Z,18.23
2018-02-06T22:50:16.383Z,21.37
2018-02-06T22:52:44.657Z,19.30
2018-02-06T22:55:12.947Z,18.40
2018-02-06T22:57:41.221Z,19.67
2018-02-06T23:00:09.516Z,20.47
2018-02-06T23:02:37.026Z,18.23
2018-02-06T23:05:04.549Z,19.20
2018-02-06T23:07:32.055Z,17.60
2018-02-06T23:09:59.575Z,18.87
2018-02-06T23:12:27.083Z,18.97
2018-02-06T23:14:55.376Z,17.67
2018-02-06T23:17:23.647Z,17.90
2018-02-06T23:19:51.931Z,19.07
2018-02-06T23:22:20.207Z,18.90
2018-02-06T23:24:48.490Z,18.40
2018-02-06T23:27:16.763Z,16.40
2018-02-06T23:29:45.047Z,18.70
2018-02-06T23:32:12.558Z,17.00
2018-02-06T23:34:40.105Z,17.00
2018-02-06T23:37:07.631Z,18.03
2018-02-06T23:39:35.151Z,17.43
2018-02-06T23:42:02.676Z,16.10
2018-02-06T23:44:30.186Z,19.70
2018-02-06T23:46:58.474Z,18.10
2018-02-06T23:49:26.751Z,17.17
2018-02-06T23:51:55.030Z,17.20
2018-02-06T23:54:23.302Z,17.20
2018-02-06T23:56:51.599Z,16.30
2018-02-06T23:59:19.135Z,17.80
